Time;durP1;ratioP1;P1;durP2;ratioP2;P2;SDS_P1;SDS_P2;PMS_P1;PMS_P2;Temp;Humidity;BMP_temperature;BMP_pressure;BME280_temperature;BME280_humidity;BME280_pressure;Samples;Min_cycle;Max_cycle;Signal;HPM_P1;HPM_P2
2020/12/02 00:03:12;;;;;;;257.07;98.47;;;;;;;-6.08;78.93;99778.10;4470681;78;21182;-79
2020/12/02 00:09:19;;;;;;;264.05;101.12;;;;;;;-6.03;78.59;99774.69;4479956;78;21187;-79
2020/12/02 00:15:20;;;;;;;312.63;121.23;;;;;;;-5.80;79.03;99790.38;4482336;77;21156;-77
2020/12/02 00:21:26;;;;;;;290.60;112.53;;;;;;;-5.72;79.05;99778.76;4486192;79;22194;-79
2020/12/02 00:27:29;;;;;;;314.57;121.05;;;;;;;-5.63;79.32;99779.09;4489235;77;21645;-79
2020/12/02 00:33:31;;;;;;;361.63;133.33;;;;;;;-5.42;79.30;99786.27;4480784;78;21163;-80
2020/12/02 00:39:33;;;;;;;335.17;131.47;;;;;;;-5.37;79.50;99792.44;4481513;77;21640;-80
2020/12/02 00:45:35;;;;;;;312.00;123.20;;;;;;;-5.19;79.44;99789.42;4482151;78;21181;-80
2020/12/02 00:51:37;;;;;;;288.13;106.47;;;;;;;-5.05;79.76;99798.62;4471952;77;21183;-80
2020/12/02 00:57:39;;;;;;;252.77;99.87;;;;;;;-4.83;79.96;99787.84;4483661;77;21750;-80
2020/12/02 01:03:41;;;;;;;238.70;92.27;;;;;;;-4.69;80.18;99783.67;4458036;78;21195;-80
2020/12/02 01:09:43;;;;;;;205.83;79.13;;;;;;;-4.64;80.27;99781.56;4430622;78;21327;-80
2020/12/02 01:15:44;;;;;;;181.80;70.10;;;;;;;-4.49;80.69;99786.47;4456961;78;21158;-80
2020/12/02 01:22:12;;;;;;;185.57;66.33;;;;;;;-4.41;80.98;99777.97;4459723;78;21601;-81
2020/12/02 01:28:24;;;;;;;177.37;68.60;;;;;;;-4.28;81.18;99779.37;4447684;78;21314;-80
2020/12/02 01:34:27;;;;;;;167.13;67.23;;;;;;;-4.28;80.60;99788.73;4456047;78;21117;-81
2020/12/02 01:40:35;;;;;;;179.73;69.93;;;;;;;-4.26;81.25;99779.37;4454874;78;21166;-79
2020/12/02 01:46:50;;;;;;;162.53;67.00;;;;;;;-4.24;81.34;99783.94;4448985;78;21638;-80
2020/12/02 01:53:36;;;;;;;176.67;66.30;;;;;;;-4.17;81.32;99780.52;4457467;79;21173;-80
2020/12/02 01:59:52;;;;;;;179.00;70.13;;;;;;;-4.15;81.30;99781.59;4450719;79;21173;-79
2020/12/02 02:06:01;;;;;;;167.33;66.53;;;;;;;-4.25;80.90;99781.00;4445064;78;21103;-80
2020/12/02 02:13:01;;;;;;;168.67;63.53;;;;;;;-4.38;81.33;99781.45;4448884;78;21180;-80
2020/12/02 02:19:04;;;;;;;156.50;62.73;;;;;;;-4.45;81.72;99792.11;4446685;78;21239;-80
2020/12/02 02:25:08;;;;;;;165.80;63.23;;;;;;;-4.41;81.49;99788.66;4458149;78;21180;-80
2020/12/02 02:31:17;;;;;;;154.57;60.50;;;;;;;-4.48;81.75;99786.76;4427693;78;21273;-80
2020/12/02 02:37:23;;;;;;;154.87;52.47;;;;;;;-4.49;82.12;99786.47;4448823;78;22205;-80
2020/12/02 02:43:25;;;;;;;172.60;63.33;;;;;;;-4.59;83.56;99790.42;4454012;78;21162;-80
2020/12/02 02:49:26;;;;;;;168.73;59.87;;;;;;;-4.71;82.38;99785.78;4459290;78;21666;-80
2020/12/02 02:55:29;;;;;;;160.70;66.23;;;;;;;-4.82;84.03;99786.77;4459215;78;21128;-80
2020/12/02 03:01:30;;;;;;;158.73;64.70;;;;;;;-4.84;82.87;99793.70;4464082;77;21149;-85
2020/12/02 03:07:32;;;;;;;179.80;67.97;;;;;;;-4.60;82.91;99792.02;4473227;77;21187;-81
2020/12/02 03:13:47;;;;;;;181.00;67.73;;;;;;;-4.54;82.80;99793.11;4457801;78;21295;-81
2020/12/02 03:19:54;;;;;;;152.33;60.13;;;;;;;-4.44;82.80;99785.69;4448581;79;21327;-81
2020/12/02 03:25:56;;;;;;;180.90;66.20;;;;;;;-4.46;82.90;99791.84;4457613;78;21175;-81
2020/12/02 03:31:57;;;;;;;183.13;66.33;;;;;;;-4.49;83.03;99785.68;4460311;79;21335;-81
2020/12/02 03:37:58;;;;;;;147.20;56.03;;;;;;;-4.47;82.91;99784.88;4459073;78;21185;-80
2020/12/02 03:44:00;;;;;;;165.60;64.43;;;;;;;-4.64;84.85;99788.23;4453197;78;21274;-81
2020/12/02 03:50:06;;;;;;;186.20;68.60;;;;;;;-4.64;83.94;99785.56;4466869;78;21189;-80
2020/12/02 03:56:08;;;;;;;;;;;;;;;-4.63;83.93;99789.31;4464299;78;21198;-80
2020/12/02 04:02:12;;;;;;;176.30;67.70;;;;;;;-4.61;84.00;99787.20;4450402;77;20286;-80
2020/12/02 04:08:13;;;;;;;165.23;64.20;;;;;;;-4.46;84.01;99795.85;4477180;77;21133;-81
2020/12/02 04:14:15;;;;;;;177.87;65.93;;;;;;;-4.36;83.73;99801.24;4482210;77;21211;-80
2020/12/02 04:20:18;;;;;;;174.20;66.73;;;;;;;-4.35;83.71;99804.99;4456919;77;22438;-80
2020/12/02 04:26:20;;;;;;;192.37;71.33;;;;;;;-4.33;83.85;99806.88;4479390;77;21718;-80
2020/12/02 04:32:21;;;;;;;191.47;69.50;;;;;;;-4.25;83.70;99806.40;4484244;78;21664;-80
2020/12/02 04:38:22;;;;;;;182.60;67.20;;;;;;;-4.28;83.79;99802.09;4481695;78;22170;-80
2020/12/02 04:44:24;;;;;;;185.93;68.20;;;;;;;-4.26;83.86;99811.45;4483523;77;21197;-80
2020/12/02 04:50:28;;;;;;;175.87;67.93;;;;;;;-4.24;83.75;99805.33;4476906;77;21164;-80
2020/12/02 04:56:30;;;;;;;146.80;57.80;;;;;;;-4.23;83.81;99813.64;4479645;78;21181;-80
2020/12/02 05:02:32;;;;;;;142.60;57.50;;;;;;;-4.20;83.61;99829.68;4469394;78;21161;-82
2020/12/02 05:08:34;;;;;;;162.80;60.70;;;;;;;-4.36;83.51;99819.43;4479597;78;21624;-81
2020/12/02 05:14:40;;;;;;;173.60;66.03;;;;;;;-4.47;83.73;99823.09;4485905;77;21139;-81
2020/12/02 05:20:43;;;;;;;161.73;63.00;;;;;;;-4.46;83.59;99816.68;4476116;78;21181;-81
2020/12/02 05:26:50;;;;;;;160.83;60.67;;;;;;;-4.45;83.74;99824.99;4484277;77;21325;-79
2020/12/02 05:33:16;;;;;;;145.83;58.93;;;;;;;-4.62;83.63;99824.86;4473832;77;21177;-80
2020/12/02 05:39:45;;;;;;;141.03;55.03;;;;;;;-4.59;83.67;99822.48;4472883;77;21144;-80
2020/12/02 05:45:50;;;;;;;141.73;55.40;;;;;;;-4.69;83.69;99817.06;4429330;79;21688;-80
2020/12/02 05:51:52;;;;;;;148.73;56.27;;;;;;;-4.74;83.84;99816.23;4469740;78;21331;-78
2020/12/02 05:58:08;;;;;;;139.67;54.83;;;;;;;-4.82;83.77;99822.05;4465119;78;21195;-80
2020/12/02 06:04:14;;;;;;;150.22;56.75;;;;;;;-4.75;84.00;99828.77;4452559;77;21150;-80
2020/12/02 06:10:19;;;;;;;151.60;61.28;;;;;;;-4.77;84.14;99834.08;4471120;77;21187;-80
2020/12/02 06:16:41;;;;;;;152.83;60.53;;;;;;;-4.78;84.12;99835.15;4480048;78;21141;-79
2020/12/02 06:22:50;;;;;;;150.87;57.37;;;;;;;-4.74;84.09;99836.27;4469223;78;21792;-80
2020/12/02 06:28:51;;;;;;;160.97;60.47;;;;;;;-4.67;84.08;99840.33;4455977;78;21202;-81
2020/12/02 06:35:18;;;;;;;156.90;58.70;;;;;;;-4.58;84.11;99837.45;4481108;77;21160;-81
2020/12/02 06:41:28;;;;;;;150.60;54.63;;;;;;;-4.53;84.08;99832.15;4455941;78;21197;-80
2020/12/02 06:47:30;;;;;;;142.60;54.23;;;;;;;-4.58;83.74;99832.11;4464219;77;22269;-80
2020/12/02 06:53:31;;;;;;;138.23;54.03;;;;;;;-4.61;83.95;99834.48;4480686;77;21810;-80
2020/12/02 06:59:56;;;;;;;129.43;53.07;;;;;;;-4.70;83.91;99837.36;4477665;77;21131;-80
2020/12/02 07:06:21;;;;;;;134.37;51.13;;;;;;;-4.75;84.13;99838.12;4465773;77;21141;-79
2020/12/02 07:12:25;;;;;;;129.50;49.33;;;;;;;-4.74;84.22;99848.29;4440576;78;21654;-80
2020/12/02 07:18:27;;;;;;;130.63;49.77;;;;;;;-4.77;84.42;99847.44;4476247;77;21312;-80
2020/12/02 07:24:40;;;;;;;121.93;47.00;;;;;;;-4.82;84.26;99838.33;4481026;77;21170;-80
2020/12/02 07:30:42;;;;;;;109.80;43.33;;;;;;;-4.76;84.28;99834.37;4473096;78;21173;-79
2020/12/02 07:36:44;;;;;;;106.60;43.67;;;;;;;-4.72;84.31;99841.62;4479874;78;21346;-81
2020/12/02 07:42:46;;;;;;;104.30;43.17;;;;;;;-4.71;84.45;99841.88;4456555;78;21112;-79
2020/12/02 07:48:52;;;;;;;106.83;43.03;;;;;;;-4.75;84.43;99844.80;4466504;78;21150;-78
2020/12/02 07:54:56;;;;;;;88.35;36.48;;;;;;;-4.90;84.92;99835.30;4475314;77;21295;-79
2020/12/02 08:01:36;;;;;;;117.53;42.63;;;;;;;-4.90;85.05;99831.30;4475426;77;21564;-79
2020/12/02 08:14:39;;;;;;;107.33;43.53;;;;;;;-4.75;84.87;99825.29;4431302;78;22328;-77
2020/12/02 08:20:44;;;;;;;100.10;42.37;;;;;;;-4.79;84.88;99822.86;4359976;79;21228;-76
2020/12/02 08:26:48;;;;;;;108.73;45.07;;;;;;;-4.74;84.90;99828.25;4392372;79;21342;-76
2020/12/02 08:33:03;;;;;;;107.03;45.50;;;;;;;-4.72;84.97;99827.45;4389367;79;21150;-76
2020/12/02 08:39:05;;;;;;;109.03;43.93;;;;;;;-4.70;84.96;99820.80;4359059;79;21165;-77
2020/12/02 08:45:21;;;;;;;103.60;41.03;;;;;;;-4.64;84.93;99822.45;4391495;79;21200;-76
2020/12/02 08:51:24;;;;;;;93.27;41.60;;;;;;;-4.66;85.07;99813.88;4389138;79;21343;-77
2020/12/02 08:57:25;;;;;;;104.73;43.20;;;;;;;-4.71;85.09;99809.04;4389488;79;21729;-77
2020/12/02 09:03:27;;;;;;;100.53;41.80;;;;;;;-4.75;85.23;99803.92;4388700;79;21212;-76
2020/12/02 09:09:28;;;;;;;101.13;45.03;;;;;;;-4.75;85.24;99803.92;4391463;79;22011;-76
2020/12/02 09:15:30;;;;;;;110.00;46.57;;;;;;;-4.81;85.12;99805.76;4392719;79;21536;-76
2020/12/02 09:21:32;;;;;;;113.80;45.83;;;;;;;-4.72;85.27;99802.06;4391556;79;21672;-77
2020/12/02 09:27:36;;;;;;;109.80;45.90;;;;;;;-4.76;85.07;99799.65;4391307;79;21756;-76
2020/12/02 09:33:37;;;;;;;117.23;46.40;;;;;;;-4.79;85.29;99784.92;4389071;79;21192;-77
2020/12/02 09:39:40;;;;;;;126.07;48.97;;;;;;;-4.78;85.33;99781.20;4386316;79;21181;-76
2020/12/02 09:46:12;;;;;;;119.03;50.43;;;;;;;-4.82;85.29;99778.75;4390391;79;21173;-79
2020/12/02 09:52:41;;;;;;;120.13;52.70;;;;;;;-4.73;85.26;99768.41;4388401;79;21229;-76
2020/12/02 09:58:42;;;;;;;121.30;52.13;;;;;;;-4.63;85.11;99767.94;4389397;79;21210;-76
2020/12/02 10:05:35;;;;;;;124.33;49.47;;;;;;;-4.58;85.60;99761.82;4392996;79;21316;-76
2020/12/02 10:11:54;;;;;;;118.73;49.63;;;;;;;-4.67;85.50;99749.50;4393987;79;21530;-77
2020/12/02 10:18:14;;;;;;;131.53;51.10;;;;;;;-4.59;85.43;99736.99;4403936;79;21326;-76
2020/12/02 10:24:25;;;;;;;119.30;49.93;;;;;;;-4.50;85.44;99734.09;4403897;79;21240;-76
2020/12/02 10:30:30;;;;;;;130.87;52.07;;;;;;;-4.37;85.48;99730.16;4405849;79;21311;-76
2020/12/02 10:36:37;;;;;;;127.17;50.60;;;;;;;-4.24;85.50;99732.33;4406519;79;22004;-76
2020/12/02 10:42:44;;;;;;;113.30;48.30;;;;;;;-4.20;85.39;99718.20;4404681;79;21272;-77
2020/12/02 10:48:59;;;;;;;120.27;45.73;;;;;;;-4.15;85.45;99718.75;4404389;79;21745;-77
2020/12/02 10:55:02;;;;;;;107.97;44.83;;;;;;;-4.11;85.46;99715.81;4404087;79;21614;-77
2020/12/02 11:01:09;;;;;;;109.13;43.73;;;;;;;-4.06;85.49;99711.30;4400912;79;21148;-77
2020/12/02 11:07:44;;;;;;;101.57;43.13;;;;;;;-4.14;85.56;99704.31;4403655;79;21303;-77
2020/12/02 11:14:08;;;;;;;92.77;39.53;;;;;;;-4.18;85.67;99695.22;4398346;79;21299;-77
2020/12/02 11:20:21;;;;;;;95.67;38.13;;;;;;;-4.20;85.56;99704.02;4401669;79;21188;-77
2020/12/02 11:26:36;;;;;;;98.70;42.20;;;;;;;-4.22;85.67;99702.14;4396526;79;21711;-77
2020/12/02 11:33:07;;;;;;;76.17;31.55;;;;;;;-4.28;85.64;99694.64;4399318;79;21326;-77
2020/12/02 11:39:17;;;;;;;94.37;38.27;;;;;;;-4.33;85.65;99688.46;4399631;79;21150;-77
2020/12/02 11:45:36;;;;;;;101.50;40.70;;;;;;;-4.42;85.88;99698.05;4403258;79;21137;-77
2020/12/02 11:52:12;;;;;;;96.00;40.13;;;;;;;-4.41;85.99;99680.41;4399750;79;21656;-77
2020/12/02 11:58:15;;;;;;;90.10;40.20;;;;;;;-4.16;85.90;99674.34;4398162;79;21121;-77
2020/12/02 12:04:39;;;;;;;84.20;37.10;;;;;;;-3.98;85.83;99653.82;4401349;79;21309;-77
2020/12/02 12:10:58;;;;;;;93.37;38.57;;;;;;;-3.92;85.60;99647.41;4392599;79;21219;-78
2020/12/02 12:17:26;;;;;;;90.83;38.57;;;;;;;-3.91;85.67;99644.47;4367407;80;21121;-76
2020/12/02 12:23:53;;;;;;;102.47;39.13;;;;;;;-3.87;85.58;99634.05;4367143;80;21680;-76
2020/12/02 12:29:54;;;;;;;;;;;;;;;-3.83;85.71;99619.87;4362901;80;21360;-78
2020/12/02 12:36:04;;;;;;;78.20;34.30;;;;;;;-3.88;85.68;99610.50;4361014;80;20181;-78
2020/12/02 12:42:08;;;;;;;84.13;38.33;;;;;;;-3.87;85.71;99604.63;4361792;80;21169;-78
2020/12/02 12:48:15;;;;;;;77.40;35.77;;;;;;;-3.89;85.75;99604.08;4332651;80;21316;-78
2020/12/02 12:54:19;;;;;;;81.15;35.92;;;;;;;-3.86;85.73;99595.52;4365319;80;21291;-77
2020/12/02 13:00:21;;;;;;;85.53;34.90;;;;;;;-3.84;85.69;99579.49;4360350;80;21293;-78
2020/12/02 13:06:37;;;;;;;78.20;35.10;;;;;;;-3.86;85.62;99584.82;4357727;80;21185;-78
2020/12/02 13:13:09;;;;;;;100.22;42.75;;;;;;;-3.85;85.76;99582.44;4371023;79;21168;-78
2020/12/02 13:19:17;;;;;;;101.90;41.77;;;;;;;-3.83;85.66;99586.44;4364374;79;21170;-77
2020/12/02 13:25:22;;;;;;;90.27;37.63;;;;;;;-3.89;85.64;99594.20;4384989;79;21599;-78
2020/12/02 13:31:35;;;;;;;86.50;36.63;;;;;;;-3.98;85.80;99585.09;4387408;79;21296;-80
2020/12/02 13:37:37;;;;;;;84.53;36.30;;;;;;;-4.02;85.83;99571.98;4363344;79;21296;-78
2020/12/02 13:43:38;;;;;;;78.53;34.57;;;;;;;-4.05;85.89;99563.16;4381185;79;21172;-78
2020/12/02 13:49:41;;;;;;;82.03;33.97;;;;;;;-4.00;86.10;99569.84;4388803;79;21622;-78
2020/12/02 13:56:07;;;;;;;93.90;39.27;;;;;;;-4.11;85.97;99552.19;4389500;79;21585;-79
2020/12/02 14:02:17;;;;;;;86.67;38.00;;;;;;;-4.12;85.95;99560.47;4386544;80;21144;-78
2020/12/02 14:08:19;;;;;;;86.93;37.33;;;;;;;-4.13;85.91;99567.69;4383582;80;21137;-77
2020/12/02 14:14:31;;;;;;;98.73;39.77;;;;;;;-4.15;85.87;99567.69;4372206;80;21198;-78
2020/12/02 14:20:32;;;;;;;87.97;38.23;;;;;;;-4.20;85.90;99573.84;4369657;80;21167;-78
2020/12/02 14:26:35;;;;;;;99.53;40.50;;;;;;;-4.42;86.13;99562.56;4365948;80;21134;-78
2020/12/02 14:32:36;;;;;;;98.80;42.27;;;;;;;-4.40;86.32;99552.95;4369794;80;21309;-77
2020/12/02 14:38:38;;;;;;;100.30;40.40;;;;;;;-4.32;86.22;99545.20;4369321;80;21139;-77
2020/12/02 14:44:41;;;;;;;143.03;49.60;;;;;;;-4.28;86.00;99534.78;4367430;80;21320;-78
2020/12/02 14:50:43;;;;;;;120.57;45.63;;;;;;;-4.27;86.10;99533.70;4367825;80;21639;-78
2020/12/02 14:57:30;;;;;;;102.40;40.90;;;;;;;-4.26;85.95;99535.33;4364210;80;21289;-78
2020/12/02 15:03:36;;;;;;;97.27;41.10;;;;;;;-4.22;86.08;99529.18;4361193;80;21281;-78
2020/12/02 15:10:03;;;;;;;88.78;37.90;;;;;;;-4.22;85.99;99528.37;4367798;80;21111;-78
2020/12/02 15:16:05;;;;;;;97.67;42.27;;;;;;;-4.22;86.01;99533.19;4383015;80;21562;-78
2020/12/02 15:22:11;;;;;;;95.27;39.43;;;;;;;-4.23;85.87;99530.27;4394240;80;21279;-78
2020/12/02 15:28:16;;;;;;;91.00;38.50;;;;;;;-4.29;85.80;99522.50;4383028;80;21314;-77
2020/12/02 15:34:18;;;;;;;99.55;38.28;;;;;;;-4.33;85.90;99512.05;4366798;80;21163;-78
2020/12/02 15:40:40;;;;;;;97.13;41.67;;;;;;;-4.35;86.04;99506.97;4362425;80;21166;-78
2020/12/02 15:47:18;;;;;;;102.13;38.57;;;;;;;-4.29;86.09;99504.57;4367683;80;21680;-78
2020/12/02 15:53:33;;;;;;;100.13;41.80;;;;;;;-4.28;86.07;99486.67;4385228;80;21182;-78
2020/12/02 15:59:55;;;;;;;94.53;38.93;;;;;;;-4.28;86.16;99488.81;4391795;80;21119;-78
2020/12/02 16:05:56;;;;;;;98.60;40.60;;;;;;;-4.26;86.23;99500.58;4391922;80;21998;-78
2020/12/02 16:12:02;;;;;;;101.60;41.27;;;;;;;-4.27;85.98;99500.30;4291819;81;21184;-78
2020/12/02 16:18:08;;;;;;;114.03;43.00;;;;;;;-4.26;86.21;99476.52;4311038;81;21164;-78
2020/12/02 16:24:12;;;;;;;108.53;45.37;;;;;;;-4.17;86.17;99476.25;4310439;81;21593;-78
2020/12/02 16:30:14;;;;;;;121.20;47.47;;;;;;;-4.23;86.04;99478.13;4281057;81;21848;-78
2020/12/02 16:36:24;;;;;;;99.57;39.90;;;;;;;-4.23;86.09;99475.46;4310218;81;21168;-78
2020/12/02 16:42:31;;;;;;;98.07;38.77;;;;;;;-4.32;86.13;99475.70;4305600;81;21201;-78
2020/12/02 16:49:11;;;;;;;99.57;40.90;;;;;;;-4.44;86.30;99468.48;4309538;81;21291;-79
2020/12/02 16:55:25;;;;;;;85.80;32.83;;;;;;;-4.48;86.51;99463.94;4304841;81;21149;-77
2020/12/02 17:01:27;;;;;;;89.33;37.33;;;;;;;-4.58;86.84;99464.73;4309465;81;21149;-80
2020/12/02 17:07:29;;;;;;;103.03;40.67;;;;;;;-4.64;86.92;99467.13;4304210;81;21192;-77
2020/12/02 17:13:48;;;;;;;99.97;38.30;;;;;;;-4.64;86.84;99464.45;4311675;81;21290;-78
2020/12/02 17:20:07;;;;;;;96.13;39.03;;;;;;;-4.68;86.99;99450.56;4307992;81;21168;-78
2020/12/02 17:26:18;;;;;;;101.07;39.47;;;;;;;-4.69;87.09;99456.44;4306601;81;21283;-77
2020/12/02 17:32:42;;;;;;;91.70;36.43;;;;;;;-4.70;87.00;99451.36;4308829;81;21188;-78
2020/12/02 17:39:27;;;;;;;98.60;39.57;;;;;;;-4.72;87.14;99461.49;4303643;81;21156;-77
2020/12/02 17:45:37;;;;;;;102.33;39.57;;;;;;;-4.72;87.00;99456.15;4303920;81;21238;-77
2020/12/02 17:51:55;;;;;;;99.47;37.13;;;;;;;-4.70;87.21;99449.50;4301029;81;21164;-77
2020/12/02 17:58:11;;;;;;;98.40;41.47;;;;;;;-4.68;87.04;99442.00;4302892;81;21148;-77
2020/12/02 18:04:39;;;;;;;100.60;39.40;;;;;;;-4.61;87.09;99450.57;4305914;81;21309;-77
2020/12/02 18:11:11;;;;;;;107.43;44.00;;;;;;;-4.56;87.09;99444.42;4279787;81;21133;-77
2020/12/02 18:17:44;;;;;;;122.90;48.87;;;;;;;-4.46;87.00;99441.22;4279462;82;21642;-78
2020/12/02 18:24:14;;;;;;;110.83;46.00;;;;;;;-4.58;87.02;99438.02;4281586;82;21151;-77
2020/12/02 18:30:36;;;;;;;103.83;41.90;;;;;;;-4.53;87.02;99421.18;4279780;82;21197;-77
2020/12/02 18:36:46;;;;;;;91.50;37.77;;;;;;;-4.51;86.92;99415.05;4277442;82;21279;-77
2020/12/02 18:43:43;;;;;;;98.53;38.73;;;;;;;-4.56;87.01;99413.17;4282858;82;21823;-78
2020/12/02 18:49:58;;;;;;;;;;;;;;;-4.58;87.03;99395.80;4285650;82;21133;-77
2020/12/02 18:56:17;;;;;;;102.03;41.90;;;;;;;-4.53;87.02;99390.45;4279681;82;20175;-78
2020/12/02 19:02:26;;;;;;;105.73;43.00;;;;;;;-4.64;86.98;99408.88;4281053;82;21308;-78
2020/12/02 19:08:28;;;;;;;114.60;45.57;;;;;;;-4.60;87.07;99397.95;4276787;82;21177;-77
2020/12/02 19:15:25;;;;;;;114.87;46.87;;;;;;;-4.65;86.69;99384.03;4122337;82;9999612;-77
2020/12/02 19:21:35;;;;;;;114.55;43.20;;;;;;;-4.73;86.73;99381.92;4078339;83;10000504;-78
2020/12/02 19:28:16;;;;;;;110.77;40.67;;;;;;;-4.67;86.80;99370.16;4488917;77;22921;-78
2020/12/02 19:34:35;;;;;;;110.33;43.80;;;;;;;-4.79;86.30;99370.16;4415122;78;21277;-77
2020/12/02 19:40:51;;;;;;;107.13;42.77;;;;;;;-5.01;86.68;99363.70;4416012;78;21325;-76
2020/12/02 19:47:37;;;;;;;97.55;37.75;;;;;;;-4.95;86.65;99361.33;4421649;78;21177;-77
2020/12/02 19:54:04;;;;;;;104.80;40.70;;;;;;;-4.81;86.90;99349.84;4295188;81;21205;-77
2020/12/02 20:00:14;;;;;;;103.50;40.23;;;;;;;-4.61;86.75;99339.70;4259805;81;22038;-76
2020/12/02 20:06:30;;;;;;;95.27;36.40;;;;;;;-4.64;86.45;99339.42;4295144;81;21153;-76
2020/12/02 20:13:12;;;;;;;103.15;40.88;;;;;;;-4.69;86.32;99334.08;4302615;81;22129;-76
2020/12/02 20:19:55;;;;;;;109.87;40.90;;;;;;;-4.84;86.42;99322.89;4297046;81;21326;-76
2020/12/02 20:26:01;;;;;;;99.67;40.07;;;;;;;-4.78;86.40;99321.00;4274927;81;21157;-76
2020/12/02 20:32:08;;;;;;;111.25;43.10;;;;;;;-4.77;86.51;99314.06;4229974;82;21193;-77
2020/12/02 20:38:35;;;;;;;108.33;44.13;;;;;;;-4.73;86.51;99328.50;4246428;82;21328;-76
2020/12/02 20:44:38;;;;;;;119.77;43.17;;;;;;;-4.69;86.47;99322.06;4234299;82;21339;-78
2020/12/02 20:51:04;;;;;;;118.93;44.60;;;;;;;-4.57;86.35;99326.61;4363681;79;21149;-79
2020/12/02 20:57:14;;;;;;;118.93;46.30;;;;;;;-4.56;86.18;99315.66;4359935;79;21176;-78
2020/12/02 21:03:18;;;;;;;107.47;38.87;;;;;;;-4.57;86.20;99327.40;4387052;79;21364;-78
2020/12/02 21:09:24;;;;;;;116.40;44.03;;;;;;;-4.56;86.13;99313.52;4376986;79;21329;-78
2020/12/02 21:15:25;;;;;;;119.55;42.95;;;;;;;-4.87;86.16;99290.05;4368176;79;21783;-78
2020/12/02 21:21:35;;;;;;;120.00;46.43;;;;;;;-4.88;86.19;99282.56;4380597;79;21297;-78
2020/12/02 21:27:54;;;;;;;122.30;45.93;;;;;;;-4.76;86.36;99292.17;4332175;79;21195;-78
2020/12/02 21:34:10;;;;;;;114.43;43.43;;;;;;;-4.78;86.31;99286.28;4354919;80;21279;-77
2020/12/02 21:40:38;;;;;;;99.77;36.73;;;;;;;-4.85;86.38;99261.99;4287654;81;21269;-78
2020/12/02 21:47:03;;;;;;;115.47;43.57;;;;;;;-4.87;86.54;99258.00;4282996;81;21163;-78
2020/12/02 21:53:22;;;;;;;124.23;47.73;;;;;;;-4.85;86.45;99270.53;4340327;80;21298;-77
2020/12/02 21:59:28;;;;;;;118.67;44.63;;;;;;;-4.75;86.64;99288.41;4235753;81;21195;-78
2020/12/02 22:05:50;;;;;;;114.65;43.20;;;;;;;-4.65;86.50;99282.52;4285514;81;21173;-78
2020/12/02 22:11:54;;;;;;;120.43;46.03;;;;;;;-4.64;86.29;99272.64;4283632;81;21690;-78
2020/12/02 22:18:07;;;;;;;120.47;48.27;;;;;;;-4.71;86.28;99286.27;4291850;81;21155;-78
2020/12/02 22:24:23;;;;;;;113.80;46.93;;;;;;;-4.71;86.33;99288.95;4288841;80;21357;-77
2020/12/02 22:30:29;;;;;;;123.45;44.30;;;;;;;-4.71;86.27;99292.95;4303760;81;21655;-79
2020/12/02 22:37:06;;;;;;;;;;;;;;;-4.72;86.39;99287.88;4476928;79;21149;-78
2020/12/02 22:43:28;;;;;;;119.87;44.18;;;;;;;-4.68;86.45;99261.69;4445737;79;20269;-77
2020/12/02 22:49:29;;;;;;;125.60;46.60;;;;;;;-4.63;86.21;99272.38;4460929;79;21133;-78
2020/12/02 22:55:35;;;;;;;116.30;40.63;;;;;;;-4.83;86.21;99265.73;4444893;79;21313;-78
2020/12/02 23:01:41;;;;;;;131.03;46.60;;;;;;;-4.87;86.49;99244.65;4314260;81;21139;-77
2020/12/02 23:07:44;;;;;;;113.28;41.60;;;;;;;-4.99;86.39;99244.11;4337719;81;21714;-78
2020/12/02 23:13:50;;;;;;;133.17;46.77;;;;;;;-5.06;86.45;99243.59;4400756;80;21287;-77
2020/12/02 23:19:57;;;;;;;119.33;45.28;;;;;;;-4.94;86.58;99260.13;4379199;80;21172;-77
2020/12/02 23:25:59;;;;;;;125.70;49.13;;;;;;;-4.83;86.12;99245.70;4305925;81;21351;-78
2020/12/02 23:32:21;;;;;;;125.67;42.53;;;;;;;-4.93;86.04;99236.35;4335729;81;21160;-77
2020/12/02 23:38:22;;;;;;;111.07;43.07;;;;;;;-4.98;86.05;99244.39;4318720;81;21165;-78
2020/12/02 23:44:47;;;;;;;137.63;48.37;;;;;;;-5.10;86.22;99235.83;4345931;81;21154;-77
2020/12/02 23:50:49;;;;;;;122.00;46.57;;;;;;;-5.03;86.41;99244.39;4460268;78;21167;-78
2020/12/02 23:56:53;;;;;;;127.47;47.07;;;;;;;-5.01;86.13;99232.36;4457085;78;21597;-78
